Time;durP1;ratioP1;P1;durP2;ratioP2;P2;SDS_P1;SDS_P2;PMS_P1;PMS_P2;Temp;Humidity;BMP_temperature;BMP_pressure;BME280_temperature;BME280_humidity;BME280_pressure;Samples;Min_cycle;Max_cycle;Signal;HPM_P1;HPM_P2
2021/01/14 00:00:19;;;;;;;0.63;0.17;;;4.00;92.90;;;;;;5014134;28;20481;-76
2021/01/14 00:02:45;;;;;;;1.77;0.20;;;4.00;92.90;;;;;;5020648;28;20046;-74
2021/01/14 00:05:13;;;;;;;0.83;0.10;;;4.00;93.00;;;;;;5013810;28;20542;-77
2021/01/14 00:07:40;;;;;;;2.10;0.40;;;4.00;92.90;;;;;;5014841;28;20084;-77
2021/01/14 00:10:09;;;;;;;1.97;0.30;;;3.90;92.90;;;;;;5016606;28;20066;-76
2021/01/14 00:12:36;;;;;;;1.07;0.17;;;4.00;92.90;;;;;;5014528;28;20490;-76
2021/01/14 00:15:05;;;;;;;2.00;0.10;;;3.90;92.90;;;;;;5013349;28;20058;-77
2021/01/14 00:17:32;;;;;;;1.37;0.20;;;3.90;92.90;;;;;;5014663;28;20092;-75
2021/01/14 00:19:59;;;;;;;0.63;0.10;;;3.90;92.90;;;;;;5014768;28;20030;-76
2021/01/14 00:22:26;;;;;;;0.60;0.10;;;3.90;92.90;;;;;;5013613;28;20486;-75
2021/01/14 00:24:53;;;;;;;1.80;1.63;;;3.90;92.90;;;;;;5013583;28;20037;-75
2021/01/14 00:27:22;;;;;;;1.50;0.10;;;3.90;92.90;;;;;;5045617;28;20085;-75
2021/01/14 00:29:48;;;;;;;1.70;0.47;;;3.80;92.90;;;;;;5046431;28;20116;-75
2021/01/14 00:32:15;;;;;;;0.40;0.10;;;3.80;92.90;;;;;;4997064;28;20092;-75
2021/01/14 00:34:42;;;;;;;0.30;0.00;;;3.80;92.90;;;;;;4997168;28;20049;-75
2021/01/14 00:39:56;;;;;;;1.60;0.10;;;3.80;92.80;;;;;;5010114;28;20065;-76
2021/01/14 00:42:22;;;;;;;2.27;0.03;;;3.80;92.80;;;;;;5014298;28;20052;-75
2021/01/14 00:44:49;;;;;;;0.93;0.13;;;3.80;92.80;;;;;;5013078;28;20490;-75
2021/01/14 00:47:16;;;;;;;1.23;0.20;;;3.80;92.80;;;;;;4993623;28;20108;-75
2021/01/14 00:49:43;;;;;;;0.73;0.10;;;3.80;92.80;;;;;;4999673;28;20072;-76
2021/01/14 00:52:10;;;;;;;0.60;0.10;;;3.80;92.80;;;;;;5012824;28;20046;-76
2021/01/14 00:54:44;;;;;;;1.77;0.10;;;3.70;92.70;;;;;;5014375;28;20037;-76
2021/01/14 00:57:17;;;;;;;1.80;0.20;;;3.70;92.70;;;;;;4997763;28;20050;-76
2021/01/14 00:59:48;;;;;;;1.30;0.20;;;3.70;92.70;;;;;;5009098;28;20576;-76
2021/01/14 01:02:14;;;;;;;1.80;0.20;;;3.70;92.80;;;;;;5004344;28;20132;-76
2021/01/14 01:04:42;;;;;;;0.30;0.00;;;3.60;92.70;;;;;;5013078;28;20125;-76
2021/01/14 01:07:09;;;;;;;1.00;0.10;;;3.60;92.80;;;;;;5015717;28;20449;-76
2021/01/14 01:09:35;;;;;;;1.47;0.63;;;3.60;93.10;;;;;;5029463;28;20501;-76
2021/01/14 01:12:02;;;;;;;2.10;0.10;;;3.60;92.80;;;;;;5012841;28;20160;-76
2021/01/14 01:14:29;;;;;;;1.53;0.50;;;3.60;92.80;;;;;;4996359;28;20061;-76
2021/01/14 01:16:56;;;;;;;2.07;0.10;;;3.50;92.80;;;;;;5013756;28;20037;-76
2021/01/14 01:19:24;;;;;;;1.13;0.10;;;3.50;93.00;;;;;;5045758;28;20422;-76
2021/01/14 01:21:51;;;;;;;1.30;0.10;;;3.50;92.80;;;;;;5013650;28;20038;-76
2021/01/14 01:24:17;;;;;;;0.20;0.10;;;3.50;92.80;;;;;;5012756;28;20445;-76
2021/01/14 01:26:50;;;;;;;1.97;0.10;;;3.40;92.80;;;;;;5012744;28;20453;-76
2021/01/14 01:29:17;;;;;;;;;;;3.40;93.00;;;;;;5014188;28;20057;-76
2021/01/14 01:31:44;;;;;;;0.93;0.10;;;3.30;92.80;;;;;;5013728;28;19925;-76
2021/01/14 01:34:11;;;;;;;2.73;0.10;;;3.30;92.90;;;;;;5013442;28;20038;-76
2021/01/14 01:36:38;;;;;;;0.50;0.00;;;3.30;92.90;;;;;;5012391;28;20113;-76
2021/01/14 01:39:05;;;;;;;1.80;0.10;;;3.20;92.80;;;;;;5012505;28;20038;-76
2021/01/14 01:41:31;;;;;;;3.30;0.40;;;3.20;92.80;;;;;;5029089;28;20077;-76
2021/01/14 01:43:58;;;;;;;1.03;0.33;;;3.20;92.80;;;;;;5012484;28;20050;-76
2021/01/14 01:46:30;;;;;;;0.70;0.20;;;3.20;92.70;;;;;;5029018;28;20132;-76
2021/01/14 01:48:58;;;;;;;0.10;0.00;;;3.20;92.80;;;;;;5011755;28;20046;-76
2021/01/14 01:51:31;;;;;;;0.30;0.00;;;3.20;92.80;;;;;;5012814;28;20101;-76
2021/01/14 01:53:59;;;;;;;1.23;0.20;;;3.20;92.80;;;;;;5036973;28;20505;-76
2021/01/14 01:56:26;;;;;;;2.53;0.20;;;3.20;92.80;;;;;;5016069;28;20050;-75
2021/01/14 01:58:57;;;;;;;0.93;0.17;;;3.20;93.00;;;;;;5001291;28;20101;-76
2021/01/14 02:01:26;;;;;;;0.93;0.10;;;3.20;92.70;;;;;;5012468;28;20509;-76
2021/01/14 02:03:53;;;;;;;0.10;0.00;;;3.30;92.80;;;;;;5011645;28;20054;-76
2021/01/14 02:06:20;;;;;;;0.93;0.20;;;3.30;92.70;;;;;;5012822;28;20437;-76
2021/01/14 02:08:54;;;;;;;1.10;0.27;;;3.30;92.70;;;;;;5013255;28;20461;-76
2021/01/14 02:11:38;;;;;;;1.40;0.10;;;3.30;92.70;;;;;;5011841;28;20050;-76
2021/01/14 02:14:24;;;;;;;0.67;0.10;;;3.30;92.60;;;;;;5005069;28;20070;-76
2021/01/14 02:16:52;;;;;;;2.37;0.30;;;3.30;92.60;;;;;;5009640;28;20120;-76
2021/01/14 02:19:30;;;;;;;0.23;0.20;;;3.30;92.60;;;;;;4995540;28;20054;-76
2021/01/14 02:22:02;;;;;;;0.63;0.10;;;3.20;92.50;;;;;;5011882;28;20052;-76
2021/01/14 02:24:38;;;;;;;2.53;0.40;;;3.20;92.50;;;;;;5012989;28;20396;-76
2021/01/14 02:27:06;;;;;;;2.00;0.27;;;3.20;92.50;;;;;;5045066;28;20564;-76
2021/01/14 02:29:35;;;;;;;1.33;0.17;;;3.20;92.50;;;;;;5011983;28;20064;-76
2021/01/14 02:32:02;;;;;;;2.20;0.10;;;3.20;92.50;;;;;;5011792;28;20046;-76
2021/01/14 02:34:29;;;;;;;2.23;0.20;;;3.20;92.60;;;;;;5011189;28;20084;-76
2021/01/14 02:36:55;;;;;;;0.67;0.07;;;3.20;92.60;;;;;;5014562;28;20073;-76
2021/01/14 02:39:22;;;;;;;1.60;0.23;;;3.20;92.50;;;;;;5000636;28;20053;-76
2021/01/14 02:41:49;;;;;;;0.87;0.20;;;3.20;92.50;;;;;;5012765;28;20065;-76
2021/01/14 02:44:16;;;;;;;1.67;0.27;;;3.20;92.40;;;;;;4996057;28;20564;-76
2021/01/14 02:46:43;;;;;;;2.70;0.40;;;3.20;92.40;;;;;;5015113;28;20034;-76
2021/01/14 02:49:12;;;;;;;0.27;0.10;;;3.20;92.40;;;;;;5017464;28;20516;-76
2021/01/14 02:51:40;;;;;;;0.90;0.30;;;3.30;92.40;;;;;;5031864;28;20089;-76
2021/01/14 02:54:08;;;;;;;0.80;0.10;;;3.30;92.30;;;;;;5016378;28;20453;-76
2021/01/14 02:56:38;;;;;;;1.23;0.20;;;3.30;92.30;;;;;;5015248;28;20045;-76
2021/01/14 02:59:05;;;;;;;1.60;0.20;;;3.30;92.30;;;;;;5015304;28;20104;-76
2021/01/14 03:01:32;;;;;;;0.10;0.00;;;3.20;92.30;;;;;;5015102;28;20049;-76
2021/01/14 03:03:59;;;;;;;0.53;0.10;;;3.20;92.20;;;;;;4998961;28;20041;-76
2021/01/14 03:06:26;;;;;;;1.47;0.27;;;3.20;92.30;;;;;;4999038;28;20470;-76
2021/01/14 03:08:53;;;;;;;0.40;0.10;;;3.10;92.30;;;;;;4999216;28;20042;-76
2021/01/14 03:11:30;;;;;;;2.17;0.10;;;3.10;92.30;;;;;;5015306;28;20442;-76
2021/01/14 03:13:57;;;;;;;0.40;0.10;;;3.10;92.30;;;;;;5016062;28;20096;-76
2021/01/14 03:16:24;;;;;;;1.10;0.50;;;3.10;92.30;;;;;;5047988;28;20046;-76
2021/01/14 03:18:51;;;;;;;0.37;0.13;;;3.10;92.30;;;;;;5015803;28;20453;-76
2021/01/14 03:21:21;;;;;;;1.03;0.47;;;3.10;92.30;;;;;;5015937;28;20046;-76
2021/01/14 03:23:48;;;;;;;2.10;0.10;;;3.10;92.30;;;;;;5047466;28;20449;-76
2021/01/14 03:26:15;;;;;;;0.77;0.10;;;3.00;92.30;;;;;;5014536;28;20080;-76
2021/01/14 03:28:43;;;;;;;1.03;0.10;;;3.00;92.30;;;;;;5014677;28;20494;-76
2021/01/14 03:31:11;;;;;;;0.80;0.10;;;3.00;92.30;;;;;;5016061;28;20084;-76
2021/01/14 03:33:39;;;;;;;1.10;0.10;;;3.00;92.30;;;;;;4998640;28;20077;-76
2021/01/14 03:36:09;;;;;;;0.83;0.20;;;2.90;92.30;;;;;;5016054;28;20033;-76
2021/01/14 03:38:37;;;;;;;1.77;0.10;;;2.90;92.30;;;;;;5014728;28;20053;-76
2021/01/14 03:41:10;;;;;;;1.10;0.10;;;2.90;92.30;;;;;;5047214;28;20046;-76
2021/01/14 03:43:38;;;;;;;0.10;0.10;;;2.80;92.30;;;;;;5014056;28;20096;-76
2021/01/14 03:46:21;;;;;;;0.40;0.10;;;2.80;92.40;;;;;;5046472;28;20050;-77
2021/01/14 03:48:49;;;;;;;0.10;0.10;;;2.80;92.60;;;;;;5014261;28;20486;-76
2021/01/14 03:51:22;;;;;;;1.90;0.10;;;2.80;92.40;;;;;;4997610;28;20133;-76
2021/01/14 03:53:50;;;;;;;1.03;0.10;;;2.80;92.40;;;;;;5046642;28;20064;-76
2021/01/14 03:56:18;;;;;;;0.37;0.07;;;2.80;92.40;;;;;;5015438;28;20065;-77
2021/01/14 03:58:45;;;;;;;0.60;0.10;;;2.80;92.70;;;;;;5015697;28;20046;-76
2021/01/14 04:01:11;;;;;;;0.57;0.10;;;2.80;92.40;;;;;;5022515;28;20452;-77
2021/01/14 04:03:40;;;;;;;0.83;0.10;;;2.80;92.40;;;;;;5043907;28;20030;-77
2021/01/14 04:06:07;;;;;;;0.50;0.07;;;2.80;92.40;;;;;;5023687;28;20042;-77
2021/01/14 04:08:34;;;;;;;0.20;0.00;;;2.80;92.40;;;;;;5010623;28;20030;-77
2021/01/14 04:11:00;;;;;;;1.23;0.10;;;2.70;92.40;;;;;;5020199;28;20065;-76
2021/01/14 04:13:26;;;;;;;0.23;0.13;;;2.80;92.40;;;;;;5013915;28;20100;-77
2021/01/14 04:15:53;;;;;;;1.70;0.10;;;2.80;92.40;;;;;;4997718;28;20042;-79
2021/01/14 04:18:20;;;;;;;0.10;0.03;;;2.80;92.40;;;;;;4997914;28;20065;-77
2021/01/14 04:20:46;;;;;;;0.60;0.10;;;2.80;92.70;;;;;;5015272;28;20390;-77
2021/01/14 04:23:13;;;;;;;1.60;0.13;;;2.80;92.40;;;;;;5015007;28;20030;-77
2021/01/14 04:25:39;;;;;;;0.33;0.00;;;2.90;92.40;;;;;;5013612;28;20038;-77
2021/01/14 04:28:06;;;;;;;0.47;0.03;;;2.90;92.40;;;;;;4997664;28;20494;-77
2021/01/14 04:30:34;;;;;;;0.23;0.17;;;2.90;92.40;;;;;;5013469;28;20046;-76
2021/01/14 04:33:11;;;;;;;0.77;0.03;;;2.90;92.30;;;;;;5005476;28;20078;-76
2021/01/14 04:35:53;;;;;;;0.43;0.07;;;2.90;92.30;;;;;;5014581;28;20490;-77
2021/01/14 04:38:22;;;;;;;1.80;0.10;;;2.90;92.30;;;;;;5009237;28;20073;-76
2021/01/14 04:40:59;;;;;;;1.03;0.20;;;2.90;92.30;;;;;;5014776;28;20050;-76
2021/01/14 04:43:27;;;;;;;2.63;0.20;;;2.90;92.20;;;;;;4985082;28;20097;-76
2021/01/14 04:46:03;;;;;;;1.63;0.30;;;2.90;92.10;;;;;;5011954;28;20131;-76
2021/01/14 04:48:37;;;;;;;0.70;0.10;;;2.80;92.10;;;;;;5011779;28;20053;-76
2021/01/14 04:51:15;;;;;;;1.13;0.20;;;2.80;92.10;;;;;;5028971;28;20037;-76
2021/01/14 04:53:47;;;;;;;0.83;0.20;;;2.70;92.10;;;;;;5013229;28;20038;-76
2021/01/14 04:56:21;;;;;;;2.63;0.10;;;2.70;92.20;;;;;;5012894;28;20038;-76
2021/01/14 04:58:49;;;;;;;0.33;0.10;;;2.60;92.30;;;;;;5013027;28;20049;-76
2021/01/14 05:01:21;;;;;;;1.83;0.10;;;2.70;92.30;;;;;;5005335;28;20430;-76
2021/01/14 05:03:49;;;;;;;;;;;2.60;92.30;;;;;;4997710;28;20049;-76
2021/01/14 05:06:25;;;;;;;0.67;0.10;;;2.60;92.40;;;;;;5013113;28;20407;-76
2021/01/14 05:09:01;;;;;;;1.13;0.20;;;2.60;92.40;;;;;;5045377;28;20125;-76
2021/01/14 05:11:36;;;;;;;1.13;0.10;;;2.60;92.30;;;;;;5029209;28;20050;-76
2021/01/14 05:14:03;;;;;;;0.40;0.00;;;2.70;92.40;;;;;;5013166;28;20049;-76
2021/01/14 05:16:29;;;;;;;0.10;0.10;;;2.60;92.30;;;;;;5012881;28;20042;-76
2021/01/14 05:18:58;;;;;;;2.57;0.10;;;2.70;92.40;;;;;;5045618;28;20077;-77
2021/01/14 05:21:31;;;;;;;0.27;0.00;;;2.70;92.60;;;;;;5029057;28;20508;-76
2021/01/14 05:24:14;;;;;;;0.50;0.05;;;2.70;92.30;;;;;;5013841;28;20076;-76
2021/01/14 05:26:44;;;;;;;0.40;0.00;;;2.70;92.30;;;;;;5014103;28;20045;-76
2021/01/14 05:29:20;;;;;;;0.00;0.00;;;2.70;92.40;;;;;;5002872;28;20046;-76
2021/01/14 05:31:49;;;;;;;0.43;0.00;;;2.80;92.40;;;;;;5011071;28;20124;-77
2021/01/14 05:34:16;;;;;;;0.60;0.20;;;2.70;92.40;;;;;;5010850;28;20700;-76
2021/01/14 05:37:03;;;;;;;0.30;0.03;;;2.70;92.30;;;;;;5010849;28;20092;-76
2021/01/14 05:39:30;;;;;;;1.30;0.10;;;2.70;92.30;;;;;;5008388;28;20038;-77
2021/01/14 05:42:08;;;;;;;0.90;0.10;;;2.70;92.40;;;;;;4994688;28;20045;-77
2021/01/14 05:44:37;;;;;;;2.63;0.10;;;2.80;92.30;;;;;;5009132;28;20050;-76
2021/01/14 05:47:24;;;;;;;0.80;0.10;;;2.80;92.30;;;;;;5011780;28;20049;-77
2021/01/14 05:49:58;;;;;;;0.60;0.10;;;2.80;92.20;;;;;;5011944;28;20092;-76
2021/01/14 05:52:27;;;;;;;1.67;0.13;;;2.80;92.20;;;;;;5011865;28;20107;-76
2021/01/14 05:55:07;;;;;;;1.13;0.20;;;2.80;92.20;;;;;;5010821;28;20367;-76
2021/01/14 05:57:38;;;;;;;3.40;0.30;;;2.80;92.20;;;;;;5017809;28;20438;-76
2021/01/14 06:00:12;;;;;;;1.27;0.20;;;2.80;92.20;;;;;;5010429;28;20046;-78
2021/01/14 06:02:40;;;;;;;0.23;0.03;;;2.70;92.10;;;;;;5016192;28;20406;-78
2021/01/14 06:05:32;;;;;;;1.90;0.20;;;2.70;92.20;;;;;;5008778;28;20045;-78
2021/01/14 06:08:03;;;;;;;0.70;0.10;;;2.70;92.10;;;;;;5009829;28;20505;-78
2021/01/14 06:10:35;;;;;;;0.50;0.00;;;2.70;92.20;;;;;;5044040;28;20375;-78
2021/01/14 06:13:01;;;;;;;0.50;0.10;;;2.70;92.20;;;;;;5011352;28;20046;-77
2021/01/14 06:15:28;;;;;;;0.87;0.10;;;2.80;92.30;;;;;;5006032;28;20405;-77
2021/01/14 06:17:59;;;;;;;0.00;0.00;;;2.70;92.20;;;;;;4991578;28;20041;-77
2021/01/14 06:20:27;;;;;;;0.40;0.10;;;2.80;92.20;;;;;;5009418;28;20045;-77
2021/01/14 06:22:57;;;;;;;1.00;0.20;;;2.80;92.20;;;;;;5010292;28;20096;-76
2021/01/14 06:25:23;;;;;;;2.20;0.40;;;2.80;92.20;;;;;;4982671;28;20082;-76
2021/01/14 06:27:55;;;;;;;1.87;0.20;;;2.80;92.20;;;;;;4994323;28;20041;-76
2021/01/14 06:30:22;;;;;;;0.73;0.20;;;2.70;92.20;;;;;;5009841;28;20494;-72
2021/01/14 06:33:01;;;;;;;1.93;0.20;;;2.80;92.20;;;;;;5008781;28;20042;-72
2021/01/14 06:35:28;;;;;;;0.90;0.20;;;2.70;92.10;;;;;;5009192;28;20042;-73
2021/01/14 06:38:01;;;;;;;0.97;0.10;;;2.70;92.20;;;;;;5008076;28;20115;-73
2021/01/14 06:40:29;;;;;;;2.38;1.73;;;2.70;92.20;;;;;;5019352;28;20569;-72
2021/01/14 06:43:08;;;;;;;1.97;0.20;;;2.70;92.20;;;;;;4994901;28;20050;-72
2021/01/14 06:45:51;;;;;;;1.03;0.20;;;2.70;92.20;;;;;;5006870;28;20497;-72
2021/01/14 06:48:29;;;;;;;2.93;0.20;;;2.70;92.20;;;;;;5008920;28;20092;-72
2021/01/14 06:51:04;;;;;;;1.73;0.20;;;2.70;92.30;;;;;;5025720;28;20053;-72
2021/01/14 06:53:31;;;;;;;0.93;0.10;;;2.70;92.20;;;;;;5009089;28;20077;-72
2021/01/14 06:55:58;;;;;;;3.30;0.50;;;2.70;92.20;;;;;;5008807;28;20084;-72
2021/01/14 06:58:25;;;;;;;0.90;0.17;;;2.70;92.30;;;;;;4862040;28;3710766;-72
2021/01/14 07:01:00;;;;;;;0.30;0.10;;;2.70;92.20;;;;;;4993366;28;20426;-72
2021/01/14 07:03:56;;;;;;;0.70;0.27;;;2.70;92.30;;;;;;4994518;28;20048;-72
2021/01/14 07:06:26;;;;;;;0.40;0.03;;;2.70;92.20;;;;;;5010495;28;20084;-73
2021/01/14 07:09:20;;;;;;;0.23;0.10;;;2.70;92.30;;;;;;5009370;28;20046;-72
2021/01/14 07:11:49;;;;;;;0.13;0.10;;;2.70;92.30;;;;;;5033006;28;20390;-72
2021/01/14 07:14:23;;;;;;;1.40;0.10;;;2.70;92.30;;;;;;5009716;28;20034;-72
2021/01/14 07:16:59;;;;;;;0.53;0.10;;;2.70;92.30;;;;;;5025521;28;20046;-72
2021/01/14 07:19:25;;;;;;;0.40;0.10;;;2.70;92.30;;;;;;5009902;28;20416;-72
2021/01/14 07:21:53;;;;;;;1.30;0.10;;;2.70;92.30;;;;;;5025316;28;20458;-72
2021/01/14 07:24:25;;;;;;;0.67;0.10;;;2.70;92.30;;;;;;5032805;28;20080;-72
2021/01/14 07:26:56;;;;;;;0.93;0.10;;;2.70;92.30;;;;;;5011241;28;20100;-72
2021/01/14 07:29:24;;;;;;;0.50;0.20;;;2.70;92.30;;;;;;5009571;28;20457;-72
2021/01/14 07:31:53;;;;;;;0.93;0.10;;;2.70;92.40;;;;;;5013700;28;20413;-72
2021/01/14 07:34:44;;;;;;;1.53;0.30;;;2.70;92.30;;;;;;5014264;28;20042;-72
2021/01/14 07:37:11;;;;;;;0.57;0.30;;;2.70;92.30;;;;;;5004464;28;20788;-72
2021/01/14 07:39:51;;;;;;;4.97;0.23;;;2.60;92.30;;;;;;5013258;28;20167;-72
2021/01/14 07:42:26;;;;;;;1.63;0.20;;;2.60;92.20;;;;;;5013353;28;20409;-72
2021/01/14 07:44:58;;;;;;;1.90;0.27;;;2.70;92.30;;;;;;5012381;28;20048;-72
2021/01/14 07:47:30;;;;;;;0.37;0.10;;;2.60;92.20;;;;;;4998386;28;20050;-77
2021/01/14 07:49:58;;;;;;;0.50;0.20;;;2.60;92.30;;;;;;5047298;28;20049;-77
2021/01/14 07:52:33;;;;;;;1.57;0.20;;;2.60;92.30;;;;;;5015682;28;20088;-76
2021/01/14 07:55:07;;;;;;;1.50;0.10;;;2.60;92.30;;;;;;5014987;28;20117;-76
2021/01/14 07:57:59;;;;;;;0.97;0.17;;;2.50;92.20;;;;;;5014199;28;20061;-76
2021/01/14 08:00:28;;;;;;;0.77;0.20;;;2.50;92.20;;;;;;5009310;28;20065;-76
2021/01/14 08:03:04;;;;;;;0.20;0.10;;;2.50;92.30;;;;;;5010797;28;20042;-77
2021/01/14 08:05:57;;;;;;;1.40;0.20;;;2.50;92.30;;;;;;5021203;28;20072;-77
2021/01/14 08:08:34;;;;;;;0.88;0.28;;;2.50;92.20;;;;;;5011542;28;20053;-77
2021/01/14 08:11:33;;;;;;;1.73;0.20;;;2.50;92.30;;;;;;5015182;28;20041;-77
2021/01/14 08:14:03;;;;;;;0.70;0.10;;;2.50;92.30;;;;;;4992885;28;20061;-77
2021/01/14 08:16:42;;;;;;;0.33;0.20;;;2.50;92.30;;;;;;5014884;28;20118;-76
2021/01/14 08:19:09;;;;;;;3.17;0.10;;;2.50;92.30;;;;;;5015066;28;20433;-76
2021/01/14 08:21:36;;;;;;;1.83;0.17;;;2.50;92.30;;;;;;5014801;28;20038;-77
2021/01/14 08:24:31;;;;;;;0.70;0.20;;;2.50;92.30;;;;;;5013606;28;20096;-76
2021/01/14 08:27:10;;;;;;;0.20;0.10;;;2.50;92.30;;;;;;5013624;28;20038;-77
2021/01/14 08:29:44;;;;;;;0.27;0.13;;;2.60;92.30;;;;;;4994257;28;20046;-77
2021/01/14 08:32:40;;;;;;;1.50;0.30;;;2.60;92.30;;;;;;4987932;28;20042;-77
2021/01/14 08:35:38;;;;;;;0.87;0.10;;;2.60;92.20;;;;;;5040711;28;20042;-77
2021/01/14 08:38:07;;;;;;;1.67;0.20;;;2.60;92.30;;;;;;5014752;28;20113;-78
2021/01/14 08:40:39;;;;;;;1.07;0.20;;;2.60;92.30;;;;;;5006486;28;20461;-77
2021/01/14 08:43:17;;;;;;;2.40;0.37;;;2.60;92.30;;;;;;5008415;28;20038;-76
2021/01/14 08:45:51;;;;;;;1.47;0.47;;;2.60;92.20;;;;;;4996998;28;20159;-78
2021/01/14 08:48:27;;;;;;;1.80;0.23;;;2.70;92.20;;;;;;5004485;28;20464;-77
2021/01/14 08:50:56;;;;;;;2.87;0.20;;;2.70;92.20;;;;;;5014108;28;20100;-77
2021/01/14 08:53:24;;;;;;;0.33;0.10;;;2.70;92.20;;;;;;5005548;28;20042;-77
2021/01/14 08:56:07;;;;;;;0.83;0.40;;;2.70;92.20;;;;;;5012201;28;20038;-77
2021/01/14 08:58:35;;;;;;;0.93;0.20;;;2.70;92.20;;;;;;4999923;28;20454;-76
2021/01/14 09:01:03;;;;;;;0.93;0.23;;;2.70;92.10;;;;;;5012849;28;20466;-76
2021/01/14 09:03:32;;;;;;;0.90;0.30;;;2.80;92.20;;;;;;5028707;28;20038;-76
2021/01/14 09:05:59;;;;;;;2.73;0.40;;;2.80;92.10;;;;;;5012853;28;20045;-77
2021/01/14 09:08:29;;;;;;;0.73;0.10;;;2.80;92.10;;;;;;5013084;28;20409;-77
2021/01/14 09:10:56;;;;;;;1.60;0.20;;;2.90;92.10;;;;;;5012431;28;20158;-76
2021/01/14 09:13:33;;;;;;;2.07;0.30;;;2.90;92.10;;;;;;5011935;28;20076;-76
2021/01/14 09:16:10;;;;;;;1.60;0.30;;;2.90;92.00;;;;;;5012539;28;20121;-76
2021/01/14 09:19:10;;;;;;;3.03;0.20;;;2.90;92.00;;;;;;4999289;28;20046;-77
2021/01/14 09:21:39;;;;;;;0.57;0.20;;;2.90;92.10;;;;;;5012184;28;20505;-77
2021/01/14 09:24:08;;;;;;;1.30;0.23;;;2.90;92.00;;;;;;4996150;28;20120;-77
2021/01/14 09:26:38;;;;;;;1.00;0.20;;;2.90;92.00;;;;;;5017184;28;20042;-77
2021/01/14 09:29:13;;;;;;;1.77;0.30;;;2.90;92.00;;;;;;5013047;28;20388;-74
2021/01/14 09:31:40;;;;;;;1.30;0.20;;;2.90;92.00;;;;;;5011270;28;20045;-75
2021/01/14 09:34:07;;;;;;;1.40;0.20;;;3.00;92.00;;;;;;5002073;28;20045;-73
2021/01/14 09:36:34;;;;;;;1.13;0.40;;;3.00;92.00;;;;;;5011240;28;20394;-74
2021/01/14 09:39:05;;;;;;;1.40;0.30;;;3.00;91.90;;;;;;5010536;28;20073;-73
2021/01/14 09:41:39;;;;;;;1.73;0.30;;;3.00;91.90;;;;;;5006373;28;20461;-74
2021/01/14 09:44:10;;;;;;;2.30;0.40;;;3.00;91.90;;;;;;5010427;28;20050;-73
2021/01/14 09:46:42;;;;;;;1.93;0.40;;;3.00;91.90;;;;;;5013058;28;20775;-72
2021/01/14 09:49:18;;;;;;;2.22;0.60;;;3.00;91.90;;;;;;5010472;28;20049;-73
2021/01/14 09:51:46;;;;;;;1.53;0.40;;;3.00;91.90;;;;;;5010388;28;20410;-72
2021/01/14 09:54:13;;;;;;;2.57;0.50;;;2.90;91.90;;;;;;4994909;28;20046;-72
2021/01/14 09:56:47;;;;;;;1.30;0.40;;;2.90;91.90;;;;;;5010639;28;20386;-72
2021/01/14 09:59:20;;;;;;;2.07;0.40;;;2.90;91.80;;;;;;4991228;28;20561;-73
2021/01/14 10:01:53;;;;;;;1.73;0.52;;;2.90;91.90;;;;;;5018879;28;20393;-72
2021/01/14 10:04:26;;;;;;;1.03;0.30;;;2.90;91.90;;;;;;5011278;28;20498;-72
2021/01/14 10:06:57;;;;;;;1.98;0.40;;;2.90;91.90;;;;;;5010397;28;20045;-72
2021/01/14 10:09:25;;;;;;;1.40;0.40;;;2.90;91.80;;;;;;5010292;28;20045;-72
2021/01/14 10:11:52;;;;;;;1.63;0.30;;;2.90;91.80;;;;;;5010408;28;20490;-73
2021/01/14 10:14:52;;;;;;;1.67;0.50;;;2.90;91.80;;;;;;5010308;28;20038;-73
2021/01/14 10:17:46;;;;;;;2.00;0.57;;;2.90;91.70;;;;;;5009679;28;20303;-73
2021/01/14 10:20:13;;;;;;;4.97;0.70;;;2.90;91.80;;;;;;4993915;28;20045;-73
2021/01/14 10:22:51;;;;;;;1.97;0.50;;;2.90;91.70;;;;;;4993253;28;20084;-73
2021/01/14 10:25:21;;;;;;;3.93;0.60;;;2.80;91.60;;;;;;5010035;28;20099;-73
2021/01/14 10:28:01;;;;;;;2.27;0.50;;;2.80;91.70;;;;;;4995987;28;20042;-73
2021/01/14 10:30:29;;;;;;;1.50;0.60;;;2.80;91.60;;;;;;5010335;28;20060;-75
2021/01/14 10:33:03;;;;;;;3.13;0.50;;;2.70;91.60;;;;;;5010103;28;20045;-72
2021/01/14 10:35:32;;;;;;;2.80;0.60;;;2.70;91.70;;;;;;5026415;28;20046;-72
2021/01/14 10:38:15;;;;;;;3.30;0.57;;;2.70;91.70;;;;;;5009898;28;20073;-72
2021/01/14 10:40:44;;;;;;;1.63;0.53;;;2.70;91.70;;;;;;5011004;28;20034;-72
2021/01/14 10:43:33;;;;;;;2.53;0.33;;;2.60;91.70;;;;;;5010768;28;20152;-72
2021/01/14 10:46:01;;;;;;;1.53;0.50;;;2.60;91.70;;;;;;4993724;28;20190;-72
2021/01/14 10:48:38;;;;;;;2.90;0.57;;;2.60;91.70;;;;;;5010505;28;20046;-72
2021/01/14 10:51:08;;;;;;;1.57;0.50;;;2.60;91.70;;;;;;5010242;28;20474;-72
2021/01/14 10:53:40;;;;;;;1.40;0.47;;;2.60;91.80;;;;;;5010189;28;20046;-72
2021/01/14 10:56:17;;;;;;;2.77;0.80;;;2.60;91.80;;;;;;4994259;28;20100;-72
2021/01/14 10:59:47;;;;;;;2.50;0.60;;;2.50;91.80;;;;;;5019030;28;20058;-72
2021/01/14 11:02:23;;;;;;;3.60;0.73;;;2.50;91.80;;;;;;4995321;28;20089;-72
2021/01/14 11:04:54;;;;;;;5.27;1.10;;;2.50;91.80;;;;;;5015526;28;20101;-72
2021/01/14 11:07:20;;;;;;;2.97;1.07;;;2.50;91.80;;;;;;4994143;28;20054;-72
2021/01/14 11:09:51;;;;;;;2.60;0.50;;;2.50;92.00;;;;;;5036274;28;20763;-71
2021/01/14 11:12:18;;;;;;;3.13;0.90;;;2.50;91.80;;;;;;5009337;28;20056;-72
2021/01/14 11:14:57;;;;;;;3.77;0.77;;;2.50;91.80;;;;;;5013265;28;20394;-71
2021/01/14 11:17:39;;;;;;;3.10;0.63;;;2.50;91.80;;;;;;5014544;28;20058;-72
2021/01/14 11:20:06;;;;;;;1.97;0.50;;;2.60;91.80;;;;;;5013473;28;20046;-72
2021/01/14 11:22:33;;;;;;;2.53;0.60;;;2.60;91.80;;;;;;5026738;28;20100;-73
2021/01/14 11:25:00;;;;;;;3.23;0.80;;;2.60;91.80;;;;;;5013550;28;20120;-72
2021/01/14 11:27:29;;;;;;;2.77;0.73;;;2.60;91.80;;;;;;5013235;28;20129;-73
2021/01/14 11:29:56;;;;;;;2.30;0.50;;;2.60;91.70;;;;;;5013997;28;20100;-75
2021/01/14 11:32:23;;;;;;;3.07;0.77;;;2.60;91.80;;;;;;4995012;28;20046;-73
2021/01/14 11:34:49;;;;;;;2.50;0.90;;;2.60;91.80;;;;;;5020787;28;20042;-74
2021/01/14 11:37:16;;;;;;;3.13;1.00;;;2.60;91.80;;;;;;5018779;28;20066;-73
2021/01/14 11:39:45;;;;;;;2.30;0.70;;;2.50;91.80;;;;;;5010893;28;20046;-73
2021/01/14 11:42:12;;;;;;;2.93;1.20;;;2.50;91.80;;;;;;4998660;28;20042;-75
2021/01/14 11:44:38;;;;;;;2.87;1.10;;;2.50;91.80;;;;;;5013195;28;20050;-73
2021/01/14 11:47:07;;;;;;;3.60;0.80;;;2.50;91.80;;;;;;4997044;28;20111;-74
2021/01/14 11:49:36;;;;;;;3.33;1.03;;;2.50;91.90;;;;;;5013285;28;20112;-75
2021/01/14 11:52:03;;;;;;;3.80;0.80;;;2.50;91.80;;;;;;5013965;28;20046;-75
2021/01/14 11:54:29;;;;;;;2.73;0.60;;;2.60;91.80;;;;;;5013129;28;20049;-75
2021/01/14 11:56:58;;;;;;;1.87;0.60;;;2.60;91.80;;;;;;5013644;28;20128;-75
2021/01/14 11:59:24;;;;;;;3.43;0.80;;;2.60;91.80;;;;;;4997592;28;20120;-75
2021/01/14 12:01:51;;;;;;;3.03;0.70;;;2.70;91.80;;;;;;5013848;28;20038;-76
2021/01/14 12:04:17;;;;;;;2.20;0.77;;;2.70;91.70;;;;;;5013210;28;20111;-77
2021/01/14 12:06:50;;;;;;;2.20;0.30;;;2.70;91.70;;;;;;5014790;28;20045;-78
2021/01/14 12:09:17;;;;;;;2.55;0.75;;;2.70;91.70;;;;;;5030298;28;20410;-75
2021/01/14 12:11:43;;;;;;;1.60;0.60;;;2.70;91.70;;;;;;4997266;28;20120;-75
2021/01/14 12:14:10;;;;;;;3.33;0.90;;;2.70;91.70;;;;;;5013021;28;20042;-75
2021/01/14 12:16:36;;;;;;;3.67;0.90;;;2.80;91.70;;;;;;5012849;28;20466;-76
2021/01/14 12:19:03;;;;;;;4.70;1.17;;;2.80;91.60;;;;;;5014667;28;20041;-75
2021/01/14 12:21:30;;;;;;;1.57;0.67;;;2.80;91.60;;;;;;5014678;28;20058;-72
2021/01/14 12:23:56;;;;;;;3.63;0.90;;;2.90;91.70;;;;;;5012253;28;20046;-73
2021/01/14 12:26:22;;;;;;;3.23;1.07;;;2.90;91.60;;;;;;5012299;28;20060;-72
2021/01/14 12:28:49;;;;;;;3.43;0.97;;;3.00;91.50;;;;;;4992815;28;20445;-75
2021/01/14 12:31:15;;;;;;;2.33;1.07;;;3.20;91.50;;;;;;4999352;28;20072;-74
2021/01/14 12:33:42;;;;;;;3.33;1.47;;;3.30;91.40;;;;;;5014319;28;20414;-75
2021/01/14 12:36:09;;;;;;;2.37;1.10;;;3.40;91.30;;;;;;5013910;28;20141;-75
2021/01/14 12:38:35;;;;;;;5.73;1.60;;;3.50;91.20;;;;;;5029421;28;20500;-75
2021/01/14 12:41:02;;;;;;;4.07;1.60;;;3.50;91.10;;;;;;5014175;28;20038;-75
2021/01/14 12:43:29;;;;;;;2.83;1.07;;;3.50;91.10;;;;;;5012860;28;20112;-75
2021/01/14 12:45:55;;;;;;;3.63;1.60;;;3.50;91.10;;;;;;5013974;28;20090;-75
2021/01/14 12:48:22;;;;;;;4.13;1.60;;;3.50;91.00;;;;;;5013525;28;20046;-74
2021/01/14 12:50:48;;;;;;;3.90;1.10;;;3.50;91.00;;;;;;5012811;28;20104;-75
2021/01/14 12:53:15;;;;;;;2.70;1.00;;;3.50;90.90;;;;;;5013690;28;20096;-74
2021/01/14 12:55:42;;;;;;;3.43;0.97;;;3.40;90.90;;;;;;5045505;28;20046;-75
2021/01/14 12:58:08;;;;;;;3.83;1.23;;;3.30;90.80;;;;;;5012390;28;20054;-76
2021/01/14 13:00:35;;;;;;;4.03;1.00;;;3.30;90.80;;;;;;5012330;28;20034;-75
2021/01/14 13:03:01;;;;;;;2.63;0.70;;;3.20;90.80;;;;;;5010863;28;20641;-75
2021/01/14 13:05:27;;;;;;;3.83;1.20;;;3.20;90.90;;;;;;4995733;28;20057;-75
2021/01/14 13:07:54;;;;;;;2.50;1.10;;;3.20;90.80;;;;;;4979991;28;20383;-76
2021/01/14 13:10:20;;;;;;;3.63;0.80;;;3.20;90.80;;;;;;5012726;28;20046;-75
2021/01/14 13:12:47;;;;;;;2.30;0.70;;;3.20;90.80;;;;;;4996498;28;20046;-76
2021/01/14 13:15:13;;;;;;;3.30;0.90;;;3.30;90.90;;;;;;4995949;28;20104;-76
2021/01/14 13:17:43;;;;;;;3.10;1.23;;;3.30;90.70;;;;;;5012523;28;20493;-76
2021/01/14 13:20:10;;;;;;;3.30;1.30;;;3.40;90.70;;;;;;5012389;28;20041;-74